createdAt,value
2022-08-29T00:31:14.290Z,1011.78
2022-08-29T00:31:54.530Z,1011.77
2022-08-29T00:32:35.115Z,1011.8
2022-08-29T00:33:15.439Z,1011.85
2022-08-29T00:33:55.903Z,1011.8
2022-08-29T00:34:36.374Z,1011.81
2022-08-29T00:35:16.855Z,1011.83
2022-08-29T00:35:57.332Z,1011.82
2022-08-29T00:36:37.912Z,1011.83
2022-08-29T00:37:18.304Z,1011.79
2022-08-29T00:37:58.833Z,1011.76
2022-08-29T00:38:39.351Z,1011.77
2022-08-29T00:39:23.234Z,1011.73
2022-08-29T00:40:00.394Z,1011.72
2022-08-29T00:40:40.893Z,1011.73
2022-08-29T00:41:21.251Z,1011.76
2022-08-29T00:42:01.753Z,1011.73
2022-08-29T00:42:42.192Z,1011.74
2022-08-29T00:43:22.713Z,1011.78
2022-08-29T00:44:03.225Z,1011.79
2022-08-29T00:44:43.882Z,1011.78
2022-08-29T00:45:24.393Z,1011.79
2022-08-29T00:46:04.956Z,1011.79
2022-08-29T00:46:45.417Z,1011.8
2022-08-29T00:47:25.896Z,1011.83
2022-08-29T00:48:06.455Z,1011.84
2022-08-29T00:48:46.966Z,1011.8
2022-08-29T00:49:27.389Z,1011.79
2022-08-29T00:50:08.000Z,1011.78
2022-08-29T00:50:48.452Z,1011.79
2022-08-29T00:51:28.955Z,1011.82
2022-08-29T00:52:09.472Z,1011.81
2022-08-29T00:52:49.947Z,1011.8
2022-08-29T00:53:30.429Z,1011.76
2022-08-29T00:54:10.898Z,1011.8
2022-08-29T00:54:51.343Z,1011.8
2022-08-29T00:55:31.883Z,1011.8
2022-08-29T00:56:12.346Z,1011.79
2022-08-29T00:56:52.871Z,1011.83
2022-08-29T00:57:33.348Z,1011.83
2022-08-29T00:58:14.602Z,1011.84
2022-08-29T00:58:54.345Z,1011.84
2022-08-29T00:59:34.890Z,1011.83
2022-08-29T01:00:15.403Z,1011.86
2022-08-29T01:00:55.975Z,1011.87
2022-08-29T01:01:36.348Z,1011.9
2022-08-29T01:02:16.923Z,1011.85
2022-08-29T01:02:57.274Z,1011.85
2022-08-29T01:03:39.419Z,1011.9
2022-08-29T01:04:23.976Z,1011.88
2022-08-29T01:04:58.771Z,1011.9
2022-08-29T01:05:39.246Z,1011.89
2022-08-29T01:06:19.892Z,1011.91
2022-08-29T01:07:00.389Z,1011.89
2022-08-29T01:07:40.916Z,1011.92
2022-08-29T01:08:21.412Z,1011.92
2022-08-29T01:09:01.943Z,1011.92
2022-08-29T01:09:42.333Z,1011.91
2022-08-29T01:10:22.881Z,1011.91
2022-08-29T01:11:03.532Z,1011.92
2022-08-29T01:11:44.013Z,1011.94
2022-08-29T01:12:24.481Z,1011.96
2022-08-29T01:13:04.999Z,1011.95
2022-08-29T01:13:45.486Z,1011.95
2022-08-29T01:14:25.996Z,1011.94
2022-08-29T01:15:06.512Z,1011.94
2022-08-29T01:15:46.993Z,1011.98
2022-08-29T01:16:27.453Z,1011.98
2022-08-29T01:17:07.979Z,1012
2022-08-29T01:17:48.410Z,1012
2022-08-29T01:18:28.880Z,1012.01
2022-08-29T01:19:09.419Z,1012.03
2022-08-29T01:19:49.766Z,1012.01
2022-08-29T01:20:30.317Z,1012.02
2022-08-29T01:21:10.799Z,1012.02
2022-08-29T01:21:51.310Z,1012.05
2022-08-29T01:22:31.842Z,1012.05
2022-08-29T01:23:12.240Z,1012.01
2022-08-29T01:23:52.778Z,1012.02
2022-08-29T01:24:33.234Z,1012.02
2022-08-29T01:25:13.784Z,1012.03
2022-08-29T01:25:54.215Z,1012.03
2022-08-29T01:26:34.790Z,1012.03
2022-08-29T01:27:15.189Z,1012.02
2022-08-29T01:27:55.678Z,1012.04
2022-08-29T01:28:36.226Z,1012.06
2022-08-29T01:29:16.669Z,1012.05
2022-08-29T01:29:57.159Z,1012.07
2022-08-29T01:30:37.582Z,1012.07
2022-08-29T01:31:58.659Z,1012.08
2022-08-29T01:32:39.268Z,1012.1
2022-08-29T01:33:19.786Z,1012.09
2022-08-29T01:34:00.409Z,1012.04
2022-08-29T01:34:40.741Z,1012.1
2022-08-29T01:35:21.255Z,1012.09
2022-08-29T01:36:01.716Z,1012.07
2022-08-29T01:37:22.714Z,1012.1
2022-08-29T01:38:03.214Z,1012.1
2022-08-29T01:38:43.739Z,1012.12
2022-08-29T01:39:24.246Z,1012.11
2022-08-29T01:40:04.787Z,1012.14
2022-08-29T01:40:45.211Z,1012.14
2022-08-29T01:41:25.711Z,1012.15
2022-08-29T01:42:06.196Z,1012.15
2022-08-29T01:42:46.658Z,1012.14
2022-08-29T01:43:27.130Z,1012.09
2022-08-29T01:44:07.579Z,1012.13
2022-08-29T01:44:48.064Z,1012.1
2022-08-29T01:45:28.531Z,1012.16
2022-08-29T01:46:09.024Z,1012.14
2022-08-29T01:46:49.929Z,1012.1
2022-08-29T01:47:31.227Z,1012.12
2022-08-29T01:48:12.069Z,1012.1
2022-08-29T01:48:52.674Z,1012.1
2022-08-29T01:49:33.090Z,1012.11
2022-08-29T01:50:14.182Z,1012.08
2022-08-29T01:50:56.897Z,1012.08
2022-08-29T01:51:38.450Z,1012.06
2022-08-29T01:52:18.724Z,1012.06
2022-08-29T01:52:59.854Z,1012.03
2022-08-29T01:53:41.893Z,1012.08
2022-08-29T01:54:22.993Z,1012.08
2022-08-29T01:55:04.040Z,1012.04
2022-08-29T01:55:45.629Z,1012.04
2022-08-29T01:56:26.902Z,1012.03
2022-08-29T01:57:12.279Z,1012.04
2022-08-29T01:57:49.127Z,1012.04
2022-08-29T01:58:31.477Z,1012.04
2022-08-29T01:59:14.927Z,1012.03
2022-08-29T01:59:56.901Z,1012.06
2022-08-29T02:00:38.455Z,1012.05
2022-08-29T02:01:20.479Z,1012.03
2022-08-29T02:02:01.901Z,1012.08
2022-08-29T02:02:45.330Z,1012.02
2022-08-29T02:08:59.621Z,1012.07
2022-08-29T02:09:40.617Z,1012.06
2022-08-29T02:10:21.519Z,1012.06
2022-08-29T02:11:02.471Z,1012.07
2022-08-29T02:11:43.432Z,1012.05
2022-08-29T02:12:24.433Z,1012.06
2022-08-29T02:13:05.434Z,1012.1
2022-08-29T02:13:46.357Z,1012.08
2022-08-29T02:14:27.403Z,1012.1
2022-08-29T02:15:08.377Z,1012.1
2022-08-29T02:15:49.355Z,1012.12
2022-08-29T02:16:30.392Z,1012.11
2022-08-29T02:17:11.293Z,1012.1
2022-08-29T02:17:52.357Z,1012.1
2022-08-29T02:18:33.391Z,1012.09
2022-08-29T02:19:14.333Z,1012.07
2022-08-29T02:19:55.316Z,1012.07
2022-08-29T02:20:36.324Z,1012.1
2022-08-29T02:21:17.325Z,1012.07
2022-08-29T02:21:58.277Z,1012.06
2022-08-29T02:22:39.246Z,1012.05
2022-08-29T02:23:30.410Z,1012.05
2022-08-29T02:24:11.431Z,1012.06
2022-08-29T02:24:42.289Z,1012.06
2022-08-29T02:25:23.200Z,1012.04
2022-08-29T02:26:04.186Z,1012.04
2022-08-29T02:26:45.117Z,1012.02
2022-08-29T02:27:26.084Z,1012
2022-08-29T02:28:07.152Z,1011.99
2022-08-29T02:28:48.055Z,1011.99
2022-08-29T02:29:30.934Z,1011.95
2022-08-29T02:30:10.013Z,1011.98
2022-08-29T02:30:52.486Z,1011.92
2022-08-29T02:31:32.065Z,1011.96
2022-08-29T02:32:12.952Z,1011.94
2022-08-29T02:32:54.788Z,1011.92
2022-08-29T02:33:35.742Z,1011.97
2022-08-29T02:34:16.689Z,1011.98
2022-08-29T02:34:57.633Z,1011.98
2022-08-29T02:35:42.684Z,1011.97
2022-08-29T02:36:19.788Z,1011.98
2022-08-29T02:37:00.637Z,1011.95
2022-08-29T02:37:41.585Z,1011.97
2022-08-29T02:38:22.600Z,1011.96
2022-08-29T02:39:03.524Z,1011.96
2022-08-29T02:39:44.537Z,1011.9
2022-08-29T02:40:31.882Z,1011.93
2022-08-29T02:41:06.382Z,1011.91
2022-08-29T02:41:47.439Z,1011.9
2022-08-29T02:42:28.492Z,1011.88
2022-08-29T02:43:09.429Z,1011.88
2022-08-29T02:43:50.506Z,1011.88
2022-08-29T02:44:31.427Z,1011.88
2022-08-29T02:45:12.512Z,1011.9
2022-08-29T02:45:53.495Z,1011.87
2022-08-29T02:46:34.538Z,1011.9
2022-08-29T02:47:15.477Z,1011.88
2022-08-29T02:47:56.496Z,1011.89
2022-08-29T02:48:37.440Z,1011.89
2022-08-29T02:49:18.405Z,1011.9
2022-08-29T02:49:59.379Z,1011.87
2022-08-29T02:50:40.407Z,1011.88
2022-08-29T02:51:21.385Z,1011.88
2022-08-29T02:52:02.357Z,1011.87
2022-08-29T02:52:43.334Z,1011.89
2022-08-29T02:53:24.396Z,1011.89
2022-08-29T02:54:05.353Z,1011.91
2022-08-29T02:54:46.361Z,1011.9
2022-08-29T02:55:27.294Z,1011.89
2022-08-29T02:56:08.318Z,1011.93
2022-08-29T02:56:49.262Z,1011.92
2022-08-29T02:57:30.261Z,1011.91
2022-08-29T02:58:11.319Z,1011.97
2022-08-29T02:58:52.368Z,1011.96
2022-08-29T02:59:33.313Z,1011.97
2022-08-29T03:00:14.310Z,1011.94
2022-08-29T03:00:55.332Z,1011.93
2022-08-29T03:01:36.361Z,1011.95
2022-08-29T03:02:17.270Z,1011.94
2022-08-29T03:02:58.205Z,1011.93
2022-08-29T03:03:39.244Z,1011.92
2022-08-29T03:04:20.175Z,1011.91
2022-08-29T03:05:01.188Z,1011.92
2022-08-29T03:05:42.158Z,1011.89
2022-08-29T03:06:23.185Z,1011.9
2022-08-29T03:07:04.155Z,1011.9
2022-08-29T03:07:49.111Z,1011.92
2022-08-29T03:08:26.212Z,1011.89
2022-08-29T03:09:07.222Z,1011.91
2022-08-29T03:09:48.203Z,1011.88
2022-08-29T03:10:29.149Z,1011.89
2022-08-29T03:11:10.143Z,1011.89
2022-08-29T03:11:51.103Z,1011.9
2022-08-29T03:12:32.155Z,1011.86
2022-08-29T03:13:13.113Z,1011.93
2022-08-29T03:13:57.410Z,1011.94
2022-08-29T03:14:35.899Z,1011.96
2022-08-29T03:15:16.830Z,1011.93
2022-08-29T03:15:57.966Z,1011.92
2022-08-29T03:16:39.028Z,1011.93
2022-08-29T03:17:19.947Z,1011.93
2022-08-29T03:18:00.921Z,1011.95
2022-08-29T03:18:41.924Z,1011.93
2022-08-29T03:19:22.809Z,1011.9
2022-08-29T03:20:03.781Z,1011.94
2022-08-29T03:20:44.753Z,1011.93
2022-08-29T03:21:25.762Z,1011.91
2022-08-29T03:22:06.728Z,1011.9
2022-08-29T03:22:47.713Z,1011.89
2022-08-29T03:23:28.715Z,1011.87
2022-08-29T03:24:09.734Z,1011.9
2022-08-29T03:25:31.745Z,1011.88
2022-08-29T03:26:12.715Z,1011.85
2022-08-29T03:26:54.626Z,1011.84
2022-08-29T03:27:34.758Z,1011.82
2022-08-29T03:28:16.995Z,1011.79
2022-08-29T03:28:58.118Z,1011.8
2022-08-29T03:29:39.123Z,1011.8
2022-08-29T03:30:20.131Z,1011.77
2022-08-29T03:31:01.190Z,1011.76
2022-08-29T03:31:42.202Z,1011.76
2022-08-29T03:33:03.930Z,1011.72
2022-08-29T03:33:44.922Z,1011.73
2022-08-29T03:34:25.953Z,1011.72
2022-08-29T03:35:06.963Z,1011.69
2022-08-29T03:35:47.954Z,1011.69
2022-08-29T03:36:28.958Z,1011.67
2022-08-29T03:37:09.924Z,1011.7
2022-08-29T03:37:50.865Z,1011.66
2022-08-29T03:38:31.860Z,1011.65
2022-08-29T03:39:12.912Z,1011.64
2022-08-29T03:39:53.878Z,1011.68
2022-08-29T03:40:34.958Z,1011.68
2022-08-29T03:41:15.861Z,1011.68
2022-08-29T03:41:56.966Z,1011.71
2022-08-29T03:43:55.217Z,1011.73
2022-08-29T03:44:35.479Z,1011.71
2022-08-29T03:45:15.982Z,1011.74
2022-08-29T03:45:56.532Z,1011.77
2022-08-29T03:46:37.056Z,1011.73
2022-08-29T03:47:57.968Z,1011.73
2022-08-29T03:48:38.443Z,1011.8
2022-08-29T03:49:18.961Z,1011.73
2022-08-29T03:49:59.467Z,1011.77
2022-08-29T03:50:39.905Z,1011.75
2022-08-29T03:51:20.439Z,1011.77
2022-08-29T03:52:00.931Z,1011.76
2022-08-29T03:52:41.371Z,1011.73
2022-08-29T03:53:21.832Z,1011.71
2022-08-29T03:54:02.326Z,1011.72
2022-08-29T03:54:42.784Z,1011.69
2022-08-29T03:55:23.305Z,1011.69
2022-08-29T03:56:03.799Z,1011.7
2022-08-29T03:56:44.315Z,1011.71
2022-08-29T03:57:24.802Z,1011.73
2022-08-29T03:58:05.310Z,1011.75
2022-08-29T03:58:49.194Z,1011.73
2022-08-29T03:59:26.274Z,1011.77
2022-08-29T04:00:06.804Z,1011.8
2022-08-29T04:00:47.258Z,1011.83
2022-08-29T04:01:27.758Z,1011.81
2022-08-29T04:02:08.286Z,1011.8
2022-08-29T04:02:48.723Z,1011.85
2022-08-29T04:03:29.983Z,1011.82
2022-08-29T04:04:09.633Z,1011.81
2022-08-29T04:04:50.096Z,1011.83
2022-08-29T04:05:30.574Z,1011.8
2022-08-29T04:06:11.072Z,1011.79
2022-08-29T04:06:51.563Z,1011.81
2022-08-29T04:08:12.486Z,1011.78
2022-08-29T04:08:52.987Z,1011.77
2022-08-29T04:09:33.439Z,1011.72
2022-08-29T04:10:13.921Z,1011.73
2022-08-29T04:10:54.446Z,1011.71
2022-08-29T04:11:34.923Z,1011.71
2022-08-29T04:13:47.728Z,1011.73
2022-08-29T04:14:28.182Z,1011.77
2022-08-29T04:15:08.592Z,1011.76
2022-08-29T04:15:49.123Z,1011.8
2022-08-29T04:16:30.430Z,1011.79
2022-08-29T04:17:10.002Z,1011.79
2022-08-29T04:17:53.119Z,1011.76
2022-08-29T04:18:31.006Z,1011.75
2022-08-29T04:19:11.407Z,1011.76
2022-08-29T04:19:51.953Z,1011.77
2022-08-29T04:20:33.247Z,1011.74
2022-08-29T04:21:13.724Z,1011.77
2022-08-29T04:21:54.218Z,1011.77
2022-08-29T04:22:34.694Z,1011.77
2022-08-29T04:23:15.148Z,1011.75
2022-08-29T04:23:55.677Z,1011.74
2022-08-29T04:24:36.140Z,1011.77
2022-08-29T04:25:16.610Z,1011.77
2022-08-29T04:26:12.655Z,1011.75
2022-08-29T04:26:38.004Z,1011.74
2022-08-29T04:27:18.046Z,1011.79
2022-08-29T04:27:58.522Z,1011.83
2022-08-29T04:28:39.048Z,1011.81
2022-08-29T04:29:19.473Z,1011.8
2022-08-29T04:30:40.425Z,1011.78
2022-08-29T04:31:20.976Z,1011.81
2022-08-29T04:32:01.420Z,1011.79
2022-08-29T04:32:41.837Z,1011.8
2022-08-29T04:33:23.071Z,1011.77
2022-08-29T04:34:02.834Z,1011.78
2022-08-29T04:34:43.308Z,1011.79
2022-08-29T04:35:23.792Z,1011.78
2022-08-29T04:36:04.277Z,1011.8
2022-08-29T04:36:44.760Z,1011.79
2022-08-29T04:37:25.266Z,1011.85
2022-08-29T04:38:05.758Z,1011.86
2022-08-29T04:38:46.152Z,1011.89
2022-08-29T04:39:26.649Z,1011.93
2022-08-29T04:40:07.157Z,1011.91
2022-08-29T04:40:47.663Z,1011.91
2022-08-29T04:41:28.195Z,1011.94
2022-08-29T04:42:08.614Z,1011.93
2022-08-29T04:42:49.107Z,1011.9
2022-08-29T04:43:29.557Z,1011.93
2022-08-29T04:44:10.007Z,1011.98
2022-08-29T04:44:50.502Z,1011.93
2022-08-29T04:45:30.978Z,1011.94
2022-08-29T04:46:16.443Z,1011.93
2022-08-29T04:46:51.956Z,1011.94
2022-08-29T04:47:32.375Z,1011.98
2022-08-29T04:48:12.858Z,1011.98
2022-08-29T04:48:53.330Z,1011.96
2022-08-29T04:49:33.823Z,1011.99
2022-08-29T04:50:14.316Z,1011.97
2022-08-29T04:50:54.851Z,1012.01
2022-08-29T04:51:35.360Z,1011.96
2022-08-29T04:52:15.857Z,1012.01
2022-08-29T04:52:56.274Z,1012
2022-08-29T04:53:36.746Z,1012.04
2022-08-29T04:54:17.195Z,1012.02
2022-08-29T04:54:57.695Z,1012.04
2022-08-29T04:55:38.176Z,1012.02
2022-08-29T04:56:18.650Z,1012.04
2022-08-29T04:56:59.126Z,1012.02
2022-08-29T04:57:39.597Z,1012.04
2022-08-29T04:58:20.172Z,1012.06
2022-08-29T04:59:00.629Z,1012
2022-08-29T04:59:41.105Z,1012.03
2022-08-29T05:01:02.076Z,1012.05
2022-08-29T05:01:42.615Z,1012.04
2022-08-29T05:02:23.068Z,1012.04
2022-08-29T05:03:03.509Z,1012.06
2022-08-29T05:03:44.026Z,1012.04
2022-08-29T05:04:24.450Z,1012.04
2022-08-29T05:05:04.924Z,1012.06
2022-08-29T05:05:45.406Z,1012.05
2022-08-29T05:06:25.858Z,1012.06
2022-08-29T05:07:06.351Z,1012.01
2022-08-29T05:07:46.932Z,1012.02
2022-08-29T05:08:27.369Z,1012.03
2022-08-29T05:09:07.817Z,1012.03
2022-08-29T05:09:48.291Z,1012.01
2022-08-29T05:11:09.243Z,1012.02
2022-08-29T05:11:49.791Z,1012.02
2022-08-29T05:12:30.319Z,1012.06
2022-08-29T05:13:10.766Z,1012.04
2022-08-29T05:13:51.237Z,1012.04
2022-08-29T05:14:31.689Z,1012.05
2022-08-29T05:15:12.213Z,1012.1
2022-08-29T05:15:52.743Z,1012.07
2022-08-29T05:16:33.180Z,1012.09
2022-08-29T05:17:13.582Z,1012.08
2022-08-29T05:17:54.056Z,1012.06
2022-08-29T05:18:34.537Z,1012.07
2022-08-29T05:19:16.075Z,1012.06
2022-08-29T05:19:55.489Z,1012.06
2022-08-29T05:20:35.967Z,1012.08
2022-08-29T05:21:16.471Z,1012.07
2022-08-29T05:21:57.011Z,1012.08
2022-08-29T05:22:37.490Z,1012.07
2022-08-29T05:23:17.955Z,1012.08
2022-08-29T05:23:58.458Z,1012.08
2022-08-29T05:24:39.536Z,1012.09
2022-08-29T05:25:20.036Z,1012.1
2022-08-29T05:26:00.493Z,1012.1
2022-08-29T05:26:40.982Z,1012.09
2022-08-29T05:27:21.435Z,1012.08
2022-08-29T05:28:42.372Z,1012.14
2022-08-29T05:29:22.881Z,1012.12
2022-08-29T05:30:04.296Z,1012.13
2022-08-29T05:30:44.827Z,1012.15
2022-08-29T05:34:32.601Z,1012.28
2022-08-29T05:34:55.410Z,1012.25
2022-08-29T05:35:35.895Z,1012.23
2022-08-29T05:36:16.413Z,1012.24
2022-08-29T05:36:56.901Z,1012.25
2022-08-29T05:37:37.365Z,1012.26
2022-08-29T05:38:18.045Z,1012.26
2022-08-29T05:38:58.355Z,1012.22
2022-08-29T05:39:38.821Z,1012.24
2022-08-29T05:40:19.332Z,1012.28
2022-08-29T05:40:59.762Z,1012.28
2022-08-29T05:41:40.226Z,1012.3
2022-08-29T05:42:22.881Z,1012.33
2022-08-29T05:43:03.294Z,1012.34
2022-08-29T05:43:43.754Z,1012.35
2022-08-29T05:44:24.210Z,1012.34
2022-08-29T05:45:04.730Z,1012.31
2022-08-29T05:46:25.835Z,1012.26
2022-08-29T05:47:06.172Z,1012.28
2022-08-29T05:47:46.687Z,1012.3
2022-08-29T05:48:27.142Z,1012.31
2022-08-29T05:49:07.729Z,1012.3
2022-08-29T05:49:48.171Z,1012.3
2022-08-29T05:50:29.522Z,1012.37
2022-08-29T05:51:10.057Z,1012.36
2022-08-29T05:51:50.636Z,1012.36
2022-08-29T05:52:31.144Z,1012.35
2022-08-29T05:53:11.674Z,1012.35
2022-08-29T05:53:52.188Z,1012.36
2022-08-29T06:31:58.766Z,1012.46
2022-08-29T06:32:39.286Z,1012.45
2022-08-29T06:33:19.763Z,1012.44
2022-08-29T06:34:00.248Z,1012.43
2022-08-29T06:34:40.754Z,1012.44
2022-08-29T06:35:21.202Z,1012.49
2022-08-29T06:36:01.720Z,1012.48
2022-08-29T06:36:42.238Z,1012.47
2022-08-29T06:37:23.094Z,1012.47
2022-08-29T06:38:03.571Z,1012.45
2022-08-29T06:38:44.071Z,1012.46
2022-08-29T06:39:24.600Z,1012.48
2022-08-29T06:40:05.063Z,1012.5
2022-08-29T06:40:45.562Z,1012.51
2022-08-29T06:41:26.044Z,1012.54
2022-08-29T06:42:06.510Z,1012.54
2022-08-29T06:42:46.965Z,1012.52
2022-08-29T06:43:27.430Z,1012.53
2022-08-29T06:44:07.929Z,1012.52
2022-08-29T06:46:05.957Z,1012.51
2022-08-29T06:46:46.405Z,1012.56
2022-08-29T06:47:28.175Z,1012.6
2022-08-29T06:48:08.619Z,1012.61
2022-08-29T06:48:49.141Z,1012.61
2022-08-29T06:49:29.644Z,1012.66
2022-08-29T06:50:10.136Z,1012.66
2022-08-29T06:51:31.421Z,1012.69
2022-08-29T06:52:11.808Z,1012.67
2022-08-29T06:52:55.708Z,1012.67
2022-08-29T06:53:37.278Z,1012.68
2022-08-29T06:54:16.580Z,1012.74
2022-08-29T06:54:57.336Z,1012.72
2022-08-29T06:55:37.770Z,1012.72
2022-08-29T06:56:18.504Z,1012.69
2022-08-29T06:58:31.435Z,1012.64
2022-08-29T06:59:11.825Z,1012.66
2022-08-29T06:59:52.333Z,1012.68
2022-08-29T07:00:32.969Z,1012.68
2022-08-29T07:01:13.496Z,1012.67
2022-08-29T07:01:54.138Z,1012.67
2022-08-29T07:02:34.557Z,1012.71
2022-08-29T07:03:15.261Z,1012.73
2022-08-29T07:03:56.253Z,1012.7
2022-08-29T07:04:36.949Z,1012.74
2022-08-29T07:05:19.768Z,1012.79
2022-08-29T07:06:00.263Z,1012.75
2022-08-29T07:06:40.866Z,1012.71
2022-08-29T07:07:21.377Z,1012.74
2022-08-29T07:08:01.883Z,1012.73
2022-08-29T07:08:46.766Z,1012.75
2022-08-29T07:09:23.301Z,1012.7
2022-08-29T07:10:04.129Z,1012.72
2022-08-29T07:10:44.658Z,1012.72
2022-08-29T07:11:25.384Z,1012.74
2022-08-29T07:12:05.862Z,1012.75
2022-08-29T07:12:46.445Z,1012.76
2022-08-29T07:13:26.906Z,1012.73
2022-08-29T07:14:07.523Z,1012.74
2022-08-29T07:14:48.950Z,1012.75
2022-08-29T07:15:36.679Z,1012.73
2022-08-29T07:18:56.881Z,1012.75
2022-08-29T07:19:37.464Z,1012.76
2022-08-29T07:20:18.388Z,1012.76
2022-08-29T07:20:59.153Z,1012.76
2022-08-29T07:21:39.875Z,1012.8
2022-08-29T07:23:00.954Z,1012.78
2022-08-29T07:23:41.531Z,1012.77
2022-08-29T07:24:24.844Z,1012.75
2022-08-29T07:25:02.837Z,1012.74
2022-08-29T07:25:43.323Z,1012.75
2022-08-29T07:26:23.819Z,1012.73
2022-08-29T07:27:04.344Z,1012.65
2022-08-29T07:27:44.926Z,1012.71
2022-08-29T07:28:25.560Z,1012.7
2022-08-29T07:29:05.974Z,1012.69
2022-08-29T07:29:50.523Z,1012.67
2022-08-29T07:30:27.719Z,1012.68
2022-08-29T07:31:08.340Z,1012.68
2022-08-29T07:31:49.293Z,1012.72
2022-08-29T07:32:29.803Z,1012.7
2022-08-29T07:36:15.942Z,1012.61
2022-08-29T07:36:57.655Z,1012.61
2022-08-29T07:37:38.144Z,1012.6
2022-08-29T07:38:19.736Z,1012.6
2022-08-29T07:39:01.037Z,1012.63
2022-08-29T07:39:41.731Z,1012.6
2022-08-29T07:40:22.530Z,1012.58
2022-08-29T07:41:03.359Z,1012.6
2022-08-29T07:41:43.708Z,1012.57
2022-08-29T07:42:25.085Z,1012.64
2022-08-29T07:43:05.773Z,1012.6
2022-08-29T07:43:47.188Z,1012.61
2022-08-29T07:44:27.757Z,1012.64
2022-08-29T07:45:08.495Z,1012.59
2022-08-29T07:45:49.028Z,1012.63
2022-08-29T07:49:41.265Z,1012.62
2022-08-29T07:50:17.234Z,1012.61
2022-08-29T07:50:58.592Z,1012.61
2022-08-29T07:51:39.305Z,1012.58
2022-08-29T07:52:21.580Z,1012.57
2022-08-29T07:53:02.303Z,1012.62
2022-08-29T07:53:43.193Z,1012.58
2022-08-29T07:54:24.320Z,1012.59
2022-08-29T07:55:05.078Z,1012.58
2022-08-29T07:55:45.491Z,1012.59
2022-08-29T07:56:27.200Z,1012.62
2022-08-29T07:57:07.745Z,1012.62
2022-08-29T07:57:48.584Z,1012.64
2022-08-29T08:01:08.368Z,1012.6
2022-08-29T08:01:49.079Z,1012.6
2022-08-29T08:02:32.042Z,1012.62
2022-08-29T08:03:15.047Z,1012.64
2022-08-29T08:04:16.276Z,1012.66
2022-08-29T08:04:58.056Z,1012.64
2022-08-29T08:05:43.659Z,1012.62
2022-08-29T08:06:24.717Z,1012.64
2022-08-29T08:07:05.686Z,1012.64
2022-08-29T08:07:47.800Z,1012.66
2022-08-29T08:09:10.598Z,1012.65
2022-08-29T08:09:51.892Z,1012.67
2022-08-29T08:10:37.292Z,1012.65
2022-08-29T08:11:21.707Z,1012.62
2022-08-29T08:12:06.280Z,1012.66
2022-08-29T08:12:46.321Z,1012.65
2022-08-29T08:14:08.629Z,1012.69
2022-08-29T08:16:07.727Z,1012.62
2022-08-29T08:19:06.730Z,1012.63
2022-08-29T08:19:47.236Z,1012.69
2022-08-29T08:20:27.743Z,1012.69
2022-08-29T08:21:08.410Z,1012.65
2022-08-29T08:21:50.132Z,1012.67
2022-08-29T08:22:29.705Z,1012.69
2022-08-29T08:23:14.754Z,1012.65
2022-08-29T08:23:53.492Z,1012.65
2022-08-29T08:24:35.185Z,1012.65
2022-08-29T08:25:15.342Z,1012.62
2022-08-29T08:25:56.067Z,1012.62
2022-08-29T08:26:36.636Z,1012.58
2022-08-29T08:27:17.375Z,1012.61
2022-08-29T08:27:57.732Z,1012.59
2022-08-29T08:28:38.317Z,1012.57
2022-08-29T08:29:18.954Z,1012.53
2022-08-29T08:30:00.054Z,1012.57
2022-08-29T08:30:41.558Z,1012.55
2022-08-29T08:31:22.023Z,1012.55
2022-08-29T08:32:02.962Z,1012.56
2022-08-29T08:32:46.964Z,1012.59
2022-08-29T08:33:25.938Z,1012.57
2022-08-29T08:34:06.481Z,1012.64
2022-08-29T08:34:47.080Z,1012.66
2022-08-29T08:35:27.719Z,1012.65
2022-08-29T08:36:08.219Z,1012.67
2022-08-29T08:37:29.274Z,1012.65
2022-08-29T08:38:11.762Z,1012.66
2022-08-29T08:38:52.074Z,1012.65
2022-08-29T08:39:32.811Z,1012.67
2022-08-29T08:40:14.953Z,1012.66
2022-08-29T08:40:55.987Z,1012.64
2022-08-29T08:41:36.613Z,1012.65
2022-08-29T08:42:18.923Z,1012.67
2022-08-29T08:42:57.831Z,1012.66
2022-08-29T08:43:38.341Z,1012.64
2022-08-29T08:44:18.829Z,1012.65
2022-08-29T08:44:59.350Z,1012.67
2022-08-29T08:45:40.946Z,1012.67
2022-08-29T08:46:20.613Z,1012.67
2022-08-29T08:49:56.490Z,1012.56
2022-08-29T08:50:37.100Z,1012.6
2022-08-29T08:51:17.676Z,1012.62
2022-08-29T08:51:59.981Z,1012.63
2022-08-29T08:52:40.603Z,1012.69
2022-08-29T08:56:00.438Z,1012.7
2022-08-29T08:56:40.890Z,1012.73
2022-08-29T08:57:21.535Z,1012.72
2022-08-29T08:58:02.064Z,1012.74
2022-08-29T08:58:42.648Z,1012.73
2022-08-29T08:59:23.342Z,1012.71
2022-08-29T09:00:03.946Z,1012.75
2022-08-29T09:00:45.149Z,1012.77
2022-08-29T09:01:25.908Z,1012.79
2022-08-29T09:02:06.490Z,1012.81
2022-08-29T09:02:46.731Z,1012.81
2022-08-29T09:03:27.368Z,1012.83
2022-08-29T09:06:57.621Z,1012.73
2022-08-29T09:07:39.238Z,1012.76
2022-08-29T09:08:19.710Z,1012.73
2022-08-29T09:09:00.266Z,1012.7
2022-08-29T09:10:21.386Z,1012.72
2022-08-29T09:13:41.366Z,1012.74
2022-08-29T09:17:27.246Z,1012.8
2022-08-29T09:18:07.953Z,1012.82
2022-08-29T09:18:51.159Z,1012.82
2022-08-29T09:19:29.789Z,1012.8
2022-08-29T09:20:53.115Z,1012.76
2022-08-29T09:21:41.813Z,1012.76
2022-08-29T09:22:14.902Z,1012.75
2022-08-29T09:22:55.559Z,1012.72
2022-08-29T09:23:36.187Z,1012.75
2022-08-29T09:24:17.617Z,1012.78
2022-08-29T09:24:58.189Z,1012.77
2022-08-29T09:25:39.672Z,1012.76
2022-08-29T09:26:20.267Z,1012.74
2022-08-29T09:29:51.572Z,1012.79
2022-08-29T09:30:32.552Z,1012.81
2022-08-29T09:34:10.927Z,1012.74
2022-08-29T09:35:11.564Z,1012.74
2022-08-29T09:35:46.682Z,1012.78
2022-08-29T09:38:15.612Z,1012.8
2022-08-29T09:38:56.578Z,1012.81
2022-08-29T09:39:37.716Z,1012.79
2022-08-29T09:40:19.189Z,1012.79
2022-08-29T09:41:02.124Z,1012.78
2022-08-29T09:41:43.268Z,1012.78
2022-08-29T09:42:24.284Z,1012.74
2022-08-29T09:43:05.312Z,1012.72
2022-08-29T09:43:46.195Z,1012.72
2022-08-29T09:44:29.442Z,1012.73
2022-08-29T09:45:11.396Z,1012.74
2022-08-29T09:45:53.116Z,1012.69
2022-08-29T09:46:34.058Z,1012.71
2022-08-29T09:47:15.196Z,1012.69
2022-08-29T09:53:28.435Z,1012.63
2022-08-29T09:54:10.112Z,1012.63
2022-08-29T09:54:51.389Z,1012.65
2022-08-29T09:55:31.251Z,1012.66
2022-08-29T09:56:12.554Z,1012.61
2022-08-29T09:56:54.401Z,1012.66
2022-08-29T09:57:36.674Z,1012.65
2022-08-29T09:58:17.352Z,1012.68
2022-08-29T09:58:57.835Z,1012.64
2022-08-29T09:59:38.841Z,1012.68
2022-08-29T10:00:20.113Z,1012.69
2022-08-29T10:02:46.695Z,1012.59
2022-08-29T10:03:30.030Z,1012.53
2022-08-29T10:04:10.815Z,1012.56
2022-08-29T10:04:52.107Z,1012.55
2022-08-29T10:05:32.604Z,1012.52
2022-08-29T10:06:13.245Z,1012.52
2022-08-29T10:06:53.759Z,1012.52
2022-08-29T10:07:36.431Z,1012.51
2022-08-29T10:08:14.813Z,1012.53
2022-08-29T10:08:55.563Z,1012.5
2022-08-29T10:09:36.129Z,1012.51
2022-08-29T10:10:16.751Z,1012.52
2022-08-29T10:10:57.225Z,1012.51
2022-08-29T10:11:37.746Z,1012.55
2022-08-29T10:12:18.299Z,1012.51
2022-08-29T10:12:58.785Z,1012.58
2022-08-29T10:13:40.292Z,1012.57
2022-08-29T10:14:21.905Z,1012.52
2022-08-29T10:15:02.026Z,1012.52
2022-08-29T10:15:51.142Z,1012.51
2022-08-29T10:16:23.789Z,1012.49
2022-08-29T10:17:04.407Z,1012.49
2022-08-29T10:17:44.941Z,1012.5
2022-08-29T10:18:25.463Z,1012.52
2022-08-29T10:19:06.690Z,1012.54
2022-08-29T10:19:47.259Z,1012.47
2022-08-29T10:20:27.905Z,1012.5
2022-08-29T10:21:08.524Z,1012.5
2022-08-29T10:21:49.247Z,1012.47
2022-08-29T10:22:29.897Z,1012.47
2022-08-29T10:24:28.590Z,1012.49
2022-08-29T10:25:09.158Z,1012.49
2022-08-29T10:25:49.710Z,1012.48
2022-08-29T10:26:30.237Z,1012.48
2022-08-29T10:27:52.410Z,1012.44
2022-08-29T10:28:32.977Z,1012.44
2022-08-29T10:29:13.543Z,1012.46
2022-08-29T10:30:34.526Z,1012.45
2022-08-29T10:31:15.095Z,1012.44
2022-08-29T10:31:55.638Z,1012.46
2022-08-29T10:35:38.111Z,1012.42
2022-08-29T10:36:18.177Z,1012.42
2022-08-29T10:37:00.007Z,1012.4
2022-08-29T10:37:43.319Z,1012.41
2022-08-29T10:38:24.989Z,1012.37
2022-08-29T10:39:05.454Z,1012.35
2022-08-29T10:39:47.181Z,1012.32
2022-08-29T10:40:27.411Z,1012.36